Platzwetter & Webcam am Flugplatz Wels

Flugwetter Linz LOWL

[Quelle: ADDS]
METAR
LOWL 241750Z AUTO VRB02KT 0650 R26/0700N FG BKN001 02/02 Q1016 TEMPO 1200 BCFG BKN002 =
TAF
LOWL 241715Z 2418/2518 09003KT 3000 BCFG BR BKN003 TX06/2513Z TNM00/2504Z TEMPO 2418/2509 VRB01KT 0300 FG VV001 PROB30 2421/2507 0100 FZFG VV000 TEMPO 2510/2515 5000 BR BKN006 PROB30 TEMPO 2511/2515 09007KT 8000 NSW SCT005 BECMG 2514/2516 27005KT 9000 -RA FEW005 SCT012 BKN025 PROB40 TEMPO 2516/2518 27015G30KT 5000 SHRA SCT008 BKN012 =

Flugwetter Salzburg LOWS

[Quelle: ADDS]
METAR
LOWS 241750Z 20003KT 160V230 CAVOK 06/02 Q1016 NOSIG =
TAF
LOWS 241715Z 2418/2518 15012KT CAVOK TX13/2512Z TN03/2518Z TEMPO 2418/2422 15005KT BECMG 2510/2512 29008KT BECMG 2512/2514 9999 SCT050 BKN090 TEMPO 2514/2518 32015G30KT SHRA BKN050 FEW060TCU =

Webcam - letzten 24 Stunden

  • 0
  • 1
  • 2
  • 3
  • 4
  • 5
  • 6
  • 7
  • 8
  • 9
  • 10
  • 11
  • 12
  • 13
  • 14
  • 15
  • 16
  • 17
  • 18
  • 19
  • 20
  • 21
  • 22
  • 23

    JU 52 Nostalgie-Rundflüge - hier am Flugplatz Wels!

    Tickets, Termine und Infos, hier am Flugplatz Wels. Tickethotline +43 7242 26499 0

    Pilot für einen Tag - Erfülle Dir den Traum vom Fliegen!

    Werde einen Tag lang Pilot bei und mit dem Fliegerclub Weiße Möwe in Wels!

    Stadt - Wels

    Ausflugsziele & Sehenswürdigkeiten
    in Wels und Umgebung